Latest Coastal Weather Observations for Cape Byron

IDN60701

Issued at 6:55 am EST Thursday 28 August 2014 (issued every 10 minutes, with the page automatically refreshed every 10 minutes)

About coastal observations | Map of coastal stations | Coastal observations for NSW | Marine services | Other Formats
Station Details ID: 058216 Name: CAPE BYRON AWS Lat: -28.64 Lon: 153.64 Height: 95.0 m
Data from the previous 72 hours. | See also: Recent months at Cape Byron
Date/Time
EST
Temp

°C
Wind Pressure Rain
since 9am
mm
Weather Cloud Vis
km
Sea
Height
m
Swell
Dir
 
Speed
knots
Gust
knots
hPa Trend Height
m
Period
s
Dir
28/06:38am 16.9 S 35 45 1014.9 - 70.2 - - - - - - -
28/06:30am 16.6 S 34 40 1014.9 - 70.2 - - - - - - -
28/06:00am 15.3 S 37 48 1014.5 - 70.2 Rain - - - - - -
28/05:40am 15.9 S 36 46 1014.1 - 69.4 - - - - - - -
28/05:30am 17.0 S 38 47 1013.7 - 69.2 - - - - - - -
28/05:16am 16.1 S 33 43 1014.1 - 69.0 - - - - - - -
28/05:00am 16.2 S 35 41 1013.6 - 68.8 - - - - - - -
28/04:55am 16.0 S 31 38 1013.9 - 68.8 - - - - - - -
28/04:41am 14.8 SSE 27 37 1013.6 - 67.2 - - - - - - -
28/04:38am 14.9 SSE 26 34 1013.8 - 66.0 - - - - - - -
28/04:30am 16.4 S 33 41 1013.7 - 65.2 - - - - - - -
28/04:03am 17.0 S 33 43 1013.3 - 65.2 - - - - - - -
28/04:00am 16.9 S 32 39 1013.3 - 65.2 - - - - - - -
28/03:41am 16.3 S 34 40 1013.4 - 65.0 - - - - - - -
28/03:38am 16.1 S 23 35 1013.4 - 65.0 - - - - - - -
28/03:35am 15.8 S 23 29 1013.5 - 65.0 - - - - - - -
28/03:30am 15.6 SE 27 38 1013.3 - 64.8 - - - - - - -
28/03:08am 15.5 SE 26 37 1013.3 - 62.0 - - - - - - -
28/03:00am 15.1 SE 25 30 1013.3 - 61.4 Rain - - - - - -
28/02:58am 15.4 SE 25 29 1013.4 - 61.4 - - - - - - -
28/02:30am 15.0 S 25 31 1014.0 - 60.4 - - - - - - -
28/02:00am 15.4 SSE 25 31 1014.0 - 58.4 - - - - - - -
28/01:30am 14.8 SSE 27 37 1013.6 - 56.6 - - - - - - -
28/01:14am 15.2 SSE 26 37 1014.2 - 55.4 - - - - - - -
28/01:00am 15.4 S 24 31 1014.4 - 54.2 - - - - - - -
28/12:30am 15.1 SSE 27 33 1014.6 - 52.2 - - - - - - -
28/12:00am 15.1 SSE 24 37 1014.6 - 50.6 Rain - - - - - -
 
Date/Time
EST
Temp

°C
Wind Pressure Rain
since 9am
mm
Weather Cloud Vis
km
Sea
Height
m
Swell
Dir
 
Speed
knots
Gust
knots
hPa Trend Height
m
Period
s
Dir
27/11:58pm 15.1 SSE 22 37 1014.8 - 50.6 - - - - - - -
27/11:46pm 15.2 SSE 19 24 1015.1 - 50.2 - - - - - - -
27/11:30pm 13.0 SSW 9 13 1015.4 - 48.8 - - - - - - -
27/11:00pm 13.6 SSW 13 19 1015.5 - 45.0 - - - - - - -
27/10:30pm 13.9 S 22 26 1015.5 - 41.0 - - - - - - -
27/10:15pm 13.3 SSW 23 26 1014.8 - 40.0 - - - - - - -
27/10:00pm 13.6 SW 13 16 1014.9 - 39.0 - - - - - - -
27/09:58pm 13.8 SSW 13 16 1014.9 - 38.8 - - - - - - -
27/09:40pm 14.6 S 25 28 1014.7 - 38.8 - - - - - - -
27/09:30pm 14.1 SSE 17 20 1013.9 - 38.6 - - - - - - -
27/09:27pm 13.5 S 25 29 1013.7 - 38.6 - - - - - - -
27/09:25pm 13.4 SW 15 25 1013.6 - 38.6 - - - - - - -
27/09:00pm 12.3 SW 15 19 1013.6 - 38.4 Rain - - - - - -
27/08:30pm 11.7 WSW 16 21 1014.2 - 38.2 - - - - - - -
27/08:00pm 11.6 W 18 26 1013.6 - 38.0 - - - - - - -
27/07:30pm 12.0 W 23 33 1012.3 - 38.0 - - - - - - -
27/07:00pm 11.9 W 25 35 1012.4 - 37.4 - - - - - - -
27/06:33pm 12.0 W 21 31 1013.0 - 36.0 - - - - - - -
27/06:30pm 12.0 W 21 28 1013.1 - 35.8 - - - - - - -
27/06:01pm 12.0 WSW 26 36 1012.8 - 34.6 - - - - - - -
27/06:00pm 12.0 WSW 26 35 1012.8 - 34.6 Rain - - - - - -
27/05:32pm 12.0 WSW 26 38 1012.9 - 32.8 - - - - - - -
27/05:30pm 12.0 WSW 26 32 1013.1 - 32.2 - - - - - - -
27/05:00pm 12.1 W 22 29 1013.6 - 28.6 - - - - - - -
27/04:31pm 12.4 W 22 32 1012.6 - 19.8 - - - - - - -
27/04:30pm 12.4 W 23 32 1012.6 - 19.6 - - - - - - -
27/04:00pm 12.5 W 22 36 1012.6 - 17.6 - - - - - - -
27/03:39pm 12.6 W 21 31 1012.7 - 17.4 - - - - - - -
27/03:30pm 12.6 WSW 23 32 1012.8 - 16.6 - - - - - - -
27/03:04pm 12.8 WSW 23 34 1012.9 - 14.6 - - - - - - -
27/03:00pm 12.8 WSW 24 32 1012.8 - 14.2 Rain - - - - - -
27/02:30pm 13.0 SW 27 35 1012.6 - 10.6 - - - - - - -
27/02:00pm 13.4 SW 26 36 1012.4 - 9.2 - - - - - - -
27/01:30pm 13.5 SW 25 36 1013.0 - 5.4 - - - - - - -
27/01:02pm 14.4 SW 25 35 1013.1 - 2.2 - - - - - - -
27/01:00pm 14.4 SW 24 33 1013.0 - 2.0 - - - - - - -
27/12:30pm 16.0 WSW 21 31 1013.8 - 0.2 - - - - - - -
27/12:27pm 16.1 WSW 21 31 1013.9 - 0.2 - - - - - - -
27/12:00pm 16.0 WSW 21 27 1014.5 - 0.2 Rain - - - - - -
27/11:40am 15.3 WSW 19 29 1015.1 - 0.0 - - - - - - -
27/11:30am 15.0 WSW 19 27 1015.2 - 0.0 - - - - - - -
27/11:00am 14.8 SW 19 26 1015.4 - 0.0 - - - - - - -
27/10:30am 14.2 SW 19 29 1016.3 - 0.0 - - - - - - -
27/10:27am 14.2 SW 17 28 1016.4 - 0.0 - - - - - - -
27/10:00am 14.3 SW 16 23 1016.2 - 0.0 - - - - - - -
27/09:50am 14.2 SW 16 26 1016.4 - 0.0 - - - - - - -
27/09:30am 14.1 SW 16 23 1016.3 - 0.0 - - - - - - -
27/09:00am 14.2 SW 21 28 1016.0 - 3.4 - - - - - - -
27/08:35am 14.6 SW 18 29 1015.9 - 3.4 - - - - - - -
27/08:30am 14.6 WSW 18 23 1015.9 - 3.4 - - - - - - -
27/08:00am 14.2 WSW 17 24 1015.7 - 3.4 - - - - - - -
27/07:30am 14.0 WSW 19 25 1015.6 - 3.4 - - - - - - -
27/07:10am 13.7 WSW 15 25 1015.6 - 3.4 - - - - - - -
27/07:00am 13.7 WSW 14 20 1015.5 - 3.4 - - - - - - -
27/06:30am 13.5 WSW 15 19 1015.4 - 3.4 - - - - - - -
27/06:00am 13.5 WSW 16 22 1014.9 - 3.4 - - - - - - -
27/05:30am 13.5 WSW 13 18 1015.0 - 3.4 - - - - - - -
27/05:00am 13.6 WSW 14 19 1014.8 - 3.4 - - - - - - -
27/04:30am 13.6 WSW 15 19 1014.9 - 3.4 - - - - - - -
27/04:00am 13.6 WSW 15 20 1014.7 - 3.4 - - - - - - -
27/03:30am 13.5 WSW 15 21 1014.5 - 3.4 - - - - - - -
27/03:00am 13.5 W 13 17 1014.7 - 3.4 - - - - - - -
27/02:30am 13.5 WSW 15 20 1014.9 - 3.4 - - - - - - -
27/02:00am 13.5 WSW 14 18 1015.3 - 3.4 - - - - - - -
27/01:30am 13.6 WSW 14 19 1015.7 - 3.4 - - - - - - -
27/01:00am 13.8 WSW 15 20 1015.8 - 3.2 - - - - - - -
27/12:30am 13.7 WSW 13 16 1016.4 - 3.2 - - - - - - -
27/12:00am 13.9 WSW 13 16 1016.3 - 3.2 - - - - - - -
 
Date/Time
EST
Temp

°C
Wind Pressure Rain
since 9am
mm
Weather Cloud Vis
km
Sea
Height
m
Swell
Dir
 
Speed
knots
Gust
knots
hPa Trend Height
m
Period
s
Dir
26/11:30pm 14.3 SW 14 17 1016.6 - 3.2 - - - - - - -
26/11:00pm 14.7 SW 14 19 1016.7 - 3.2 - - - - - - -
26/10:30pm 14.4 SW 13 16 1017.0 - 3.0 - - - - - - -
26/10:00pm 14.5 WSW 12 15 1017.0 - 3.0 - - - - - - -
26/09:30pm 14.7 WSW 13 16 1017.4 - 3.0 - - - - - - -
26/09:00pm 15.0 WSW 11 13 1017.3 - 3.0 Recent precip. - - - - - -
26/08:30pm 15.9 SSW 12 15 1017.7 - 3.0 - - - - - - -
26/08:00pm 15.6 SW 11 14 1017.2 - 1.6 - - - - - - -
26/07:30pm 16.8 SW 10 14 1017.4 - 1.6 - - - - - - -
26/07:00pm 17.4 S 19 24 1017.3 - 1.6 - - - - - - -
26/06:30pm 18.0 S 19 22 1017.1 - 1.6 - - - - - - -
26/06:00pm 18.0 S 17 21 1016.7 - 1.6 - - - - - - -
26/05:30pm 17.9 S 16 23 1016.7 - 1.6 - - - - - - -
26/05:00pm 17.8 S 18 23 1016.4 - 1.6 - - - - - - -
26/04:30pm 18.2 S 17 22 1016.3 - 1.6 - - - - - - -
26/04:00pm 18.0 S 19 23 1015.8 - 1.6 - - - - - - -
26/03:30pm 18.6 S 18 22 1015.8 - 1.6 - - - - - - -
26/03:00pm 18.5 S 17 24 1015.8 - 1.6 - - - - - - -
26/02:30pm 18.6 SSE 16 23 1016.0 - 1.6 - - - - - - -
26/02:00pm 18.8 SSE 16 22 1016.2 - 1.6 - - - - - - -
26/01:30pm 18.5 S 18 21 1016.7 - 1.6 - - - - - - -
26/01:00pm 18.1 SSE 16 21 1016.7 - 1.6 - - - - - - -
26/12:30pm 17.1 SE 16 22 1017.2 - 1.4 - - - - - - -
26/12:00pm 16.6 ESE 19 22 1017.3 - 0.2 Recent precip. - - - - - -
26/11:42am 16.1 SSW 15 24 1018.1 - 0.0 - - - - - - -
26/11:30am 17.8 SSW 10 13 1018.3 - 0.0 - - - - - - -
26/11:00am 18.3 S 12 16 1018.5 - 0.0 - - - - - - -
26/10:30am 18.2 S 11 14 1018.8 - 0.0 - - - - - - -
26/10:00am 18.2 SE 15 19 1018.8 - 0.0 - - - - - - -
26/09:30am 17.4 ESE 16 19 1018.7 - 0.0 - - - - - - -
26/09:00am 17.0 SSE 16 23 1018.7 - 2.0 Recent precip. - - - - - -
26/08:30am 16.0 S 22 27 1019.0 - 2.0 - - - - - - -
26/08:00am 14.9 SSW 20 27 1018.8 - 1.4 - - - - - - -
26/07:46am 14.1 SW 16 28 1018.9 - 1.2 - - - - - - -
26/07:30am 14.0 SW 19 26 1018.8 - 1.2 - - - - - - -
26/07:00am 13.3 SW 16 20 1018.2 - 1.2 - - - - - - -
26/06:30am 13.4 SW 16 22 1018.1 - 1.2 - - - - - - -
26/06:00am 13.2 SW 17 23 1017.8 - 1.2 - - - - - - -
26/05:30am 13.1 WSW 17 21 1017.4 - 1.2 - - - - - - -
26/05:00am 12.9 SW 15 18 1017.1 - 1.2 - - - - - - -
26/04:30am 12.8 WSW 15 19 1017.2 - 1.2 - - - - - - -
26/04:00am 13.1 WSW 14 17 1017.0 - 1.2 - - - - - - -
26/03:30am 13.1 WSW 14 17 1017.4 - 0.8 - - - - - - -
26/03:00am 13.2 WSW 15 20 1017.3 - 0.8 - - - - - - -
26/02:30am 13.4 WSW 16 21 1017.8 - 0.8 - - - - - - -
26/02:00am 13.5 SW 14 17 1018.0 - 0.8 - - - - - - -
26/01:30am 13.5 WSW 15 19 1018.5 - 0.8 - - - - - - -
26/01:00am 13.6 WSW 15 18 1018.5 - 0.8 - - - - - - -
26/12:30am 13.7 WSW 15 19 1018.9 - 0.8 - - - - - - -
26/12:00am 13.9 WSW 15 19 1019.0 - 0.8 Recent precip. - - - - - -
 
Date/Time
EST
Temp

°C
Wind Pressure Rain
since 9am
mm
Weather Cloud Vis
km
Sea
Height
m
Swell
Dir
 
Speed
knots
Gust
knots
hPa Trend Height
m
Period
s
Dir
25/11:30pm 14.2 SW 14 17 1019.3 - 0.8 - - - - - - -
25/11:00pm 14.6 SW 13 17 1019.3 - 0.6 - - - - - - -
25/10:30pm 14.9 SW 13 16 1019.6 - 0.6 - - - - - - -
25/10:00pm 15.1 SW 12 14 1019.7 - 0.6 - - - - - - -
25/09:30pm 15.7 SW 11 15 1020.1 - 0.6 - - - - - - -
25/09:00pm 17.3 S 16 20 1020.1 - 0.6 - - - - - - -
25/08:30pm 17.9 S 19 22 1020.3 - 0.6 - - - - - - -
25/08:00pm 17.8 S 18 23 1020.2 - 0.6 - - - - - - -
25/07:30pm 17.9 S 19 23 1020.4 - 0.6 - - - - - - -
25/07:00pm 17.6 S 17 23 1020.0 - 0.6 - - - - - - -
25/06:30pm 16.1 SSW 12 18 1020.0 - 0.4 - - - - - - -
25/06:00pm 15.5 SW 11 14 1019.7 - 0.4 - - - - - - -
25/05:30pm 16.8 SW 13 17 1019.8 - 0.4 - - - - - - -
25/05:00pm 16.8 S 24 27 1019.4 - 0.4 - - - - - - -
25/04:30pm 17.3 SSW 19 23 1019.5 - 0.4 - - - - - - -
25/04:00pm 17.5 SSW 19 21 1019.2 - 0.4 - - - - - - -
25/03:35pm 16.5 S 22 32 1019.7 - 0.4 - - - - - - -
25/03:30pm 17.1 S 24 32 1019.6 - 0.4 - - - - - - -
25/03:00pm 18.1 SSW 19 26 1019.2 - 0.4 - - - - - - -
25/02:30pm 17.9 SSW 22 26 1019.5 - 0.4 - - - - - - -
25/02:00pm 18.0 SSW 21 25 1019.4 - 0.4 - - - - - - -
25/01:30pm 17.9 SSW 23 27 1019.8 - 0.4 - - - - - - -
25/01:00pm 17.8 SSW 21 26 1019.9 - 0.4 - - - - - - -
25/12:30pm 17.7 SSW 20 24 1020.3 - 0.4 - - - - - - -
25/12:00pm 17.0 SSW 22 29 1020.5 - 0.2 - - - - - - -
25/11:30am 17.3 SSW 21 25 1021.1 - 0.2 - - - - - - -
25/11:00am 17.1 SSW 19 26 1021.5 - 0.2 - - - - - - -
25/10:30am 16.6 SSW 15 20 1022.0 - 0.0 - - - - - - -
25/10:00am 16.2 SW 13 18 1022.3 - 0.0 - - - - - - -
25/09:30am 15.1 SW 12 17 1022.6 - 0.0 - - - - - - -
25/09:00am 15.2 SW 12 16 1022.5 - 7.0 Recent precip. - - - - - -
25/08:30am 14.7 SW 14 18 1022.6 - 7.0 - - - - - - -
25/08:00am 14.4 SW 14 20 1022.4 - 6.2 - - - - - - -
25/07:30am 14.4 SW 13 17 1022.0 - 5.4 - - - - - - -
25/07:00am 13.9 SW 13 15 1021.8 - 5.4 - - - - - - -

Other Formats:

Comma delimited format used in spreadsheet applications
http://www.bom.gov.au/fwo/IDN60701/IDN60701.94599.axf

JavaScript Object Notation format (JSON) in row-major order
http://www.bom.gov.au/fwo/IDN60701/IDN60701.94599.json